createdAt,value
2023-01-02T00:02:16.047Z,14.90
2023-01-02T00:04:45.628Z,14.90
2023-01-02T00:07:15.268Z,14.90
2023-01-02T00:09:45.328Z,14.90
2023-01-02T00:12:14.936Z,15.00
2023-01-02T00:14:44.648Z,15.00
2023-01-02T00:17:14.217Z,15.00
2023-01-02T00:19:44.535Z,15.00
2023-01-02T00:22:14.125Z,15.10
2023-01-02T00:24:43.653Z,15.10
2023-01-02T00:27:13.227Z,15.20
2023-01-02T00:29:43.101Z,15.20
2023-01-02T00:32:12.684Z,15.20
2023-01-02T00:34:42.261Z,15.30
2023-01-02T00:37:11.902Z,15.30
2023-01-02T00:39:41.455Z,15.40
2023-01-02T00:42:10.960Z,15.40
2023-01-02T00:44:40.648Z,15.40
2023-01-02T00:47:10.164Z,15.50
2023-01-02T00:49:39.699Z,15.50
2023-01-02T00:52:09.382Z,15.60
2023-01-02T00:54:38.911Z,15.60
2023-01-02T00:57:08.488Z,15.60
2023-01-02T00:59:38.115Z,15.70
2023-01-02T01:02:07.836Z,15.80
2023-01-02T01:04:38.780Z,15.80
2023-01-02T01:07:08.413Z,15.80
2023-01-02T01:09:38.024Z,15.90
2023-01-02T01:12:07.785Z,15.90
2023-01-02T01:14:37.476Z,16.00
2023-01-02T01:17:07.188Z,16.00
2023-01-02T01:19:37.940Z,16.10
2023-01-02T01:22:08.118Z,16.10
2023-01-02T01:24:37.745Z,16.20
2023-01-02T01:27:07.370Z,16.20
2023-01-02T01:29:38.431Z,16.30
2023-01-02T01:32:08.642Z,16.30
2023-01-02T01:34:38.285Z,16.40
2023-01-02T01:37:07.900Z,16.50
2023-01-02T01:39:37.606Z,16.50
2023-01-02T01:42:07.350Z,16.50
2023-01-02T01:44:56.808Z,16.60
2023-01-02T01:47:49.466Z,16.60
2023-01-02T01:50:34.413Z,16.70
2023-01-02T01:53:11.763Z,16.80
2023-01-02T01:55:57.618Z,16.80
2023-01-02T01:58:32.398Z,16.90
2023-01-02T02:01:02.659Z,16.90
2023-01-02T02:03:34.736Z,17.00
2023-01-02T02:06:05.315Z,17.00
2023-01-02T02:09:00.500Z,17.10
2023-01-02T02:11:31.156Z,17.20
2023-01-02T02:14:02.506Z,17.20
2023-01-02T02:16:56.091Z,17.30
2023-01-02T02:20:03.552Z,17.30
2023-01-02T02:23:12.169Z,17.40
2023-01-02T02:26:20.936Z,17.50
2023-01-02T02:29:23.006Z,17.60
2023-01-02T02:32:24.324Z,17.70
2023-01-02T02:35:16.415Z,17.80
2023-01-02T02:38:13.351Z,17.90
2023-01-02T02:41:07.185Z,18.00
2023-01-02T02:44:08.706Z,18.00
2023-01-02T02:47:03.364Z,18.10
2023-01-02T02:50:12.209Z,18.20
2023-01-02T02:52:54.551Z,18.20
2023-01-02T02:55:46.984Z,18.30
2023-01-02T02:58:18.482Z,18.40
2023-01-02T03:00:50.726Z,18.40
2023-01-02T03:03:25.946Z,18.50
2023-01-02T03:06:23.787Z,18.60
2023-01-02T03:09:08.403Z,18.60
2023-01-02T03:12:17.156Z,18.70
2023-01-02T03:15:09.387Z,18.80
2023-01-02T03:18:08.712Z,18.90
2023-01-02T03:20:51.141Z,18.90
2023-01-02T03:23:25.903Z,18.90
2023-01-02T03:25:56.534Z,19.00
2023-01-02T03:28:28.036Z,19.00
2023-01-02T03:31:01.878Z,19.10
2023-01-02T03:33:39.300Z,19.10
2023-01-02T03:36:17.845Z,19.20
2023-01-02T03:39:01.914Z,19.20
2023-01-02T03:41:37.047Z,19.20
2023-01-02T03:44:11.219Z,19.30
2023-01-02T03:46:53.154Z,19.40
2023-01-02T03:49:31.947Z,19.40
2023-01-02T03:52:02.425Z,19.50
2023-01-02T03:54:32.998Z,19.50
2023-01-02T03:57:11.910Z,19.60
2023-01-02T04:00:11.468Z,19.70
2023-01-02T04:03:10.912Z,19.70
2023-01-02T04:05:55.564Z,19.80
2023-01-02T04:08:47.049Z,19.80
2023-01-02T04:11:21.232Z,19.90
2023-01-02T04:14:01.774Z,20.00
2023-01-02T04:16:35.259Z,20.10
2023-01-02T04:19:17.647Z,20.10
2023-01-02T04:21:50.927Z,20.20
2023-01-02T04:24:28.382Z,20.30
2023-01-02T04:27:13.873Z,20.40
2023-01-02T04:29:43.935Z,20.40
2023-01-02T04:32:25.208Z,20.50
2023-01-02T04:34:56.809Z,20.60
2023-01-02T04:37:35.947Z,20.60
2023-01-02T04:40:11.962Z,20.60
2023-01-02T04:42:41.579Z,20.70
2023-01-02T04:45:11.736Z,20.80
2023-01-02T04:47:41.384Z,20.90
2023-01-02T04:50:12.130Z,20.90
2023-01-02T04:52:41.730Z,21.10
2023-01-02T04:55:12.495Z,21.10
2023-01-02T04:57:42.168Z,21.10
2023-01-02T05:00:12.390Z,21.20
2023-01-02T05:02:43.803Z,21.20
2023-01-02T05:05:13.586Z,21.30
2023-01-02T05:07:43.234Z,21.40
2023-01-02T05:10:13.081Z,21.40
2023-01-02T05:12:43.217Z,21.50
2023-01-02T05:15:13.319Z,21.60
2023-01-02T05:17:44.325Z,21.60
2023-01-02T05:20:15.008Z,21.60
2023-01-02T05:23:05.900Z,21.70
2023-01-02T05:25:37.849Z,21.80
2023-01-02T05:28:07.540Z,21.80
2023-01-02T05:30:39.494Z,21.90
2023-01-02T05:33:09.123Z,21.90
2023-01-02T05:35:39.007Z,21.90
2023-01-02T05:38:08.800Z,22.00
2023-01-02T05:40:38.408Z,22.00
2023-01-02T05:43:08.000Z,22.10
2023-01-02T05:45:37.569Z,22.10
2023-01-02T05:48:07.465Z,22.10
2023-01-02T05:50:37.068Z,22.20
2023-01-02T05:53:06.590Z,22.20
2023-01-02T05:55:36.139Z,22.20
2023-01-02T05:58:05.785Z,22.20
2023-01-02T06:00:35.478Z,22.30
2023-01-02T06:03:05.190Z,22.30
2023-01-02T06:05:36.257Z,22.30
2023-01-02T06:08:05.932Z,22.30
2023-01-02T06:10:35.574Z,22.40
2023-01-02T06:13:05.272Z,22.40
2023-01-02T06:15:36.407Z,22.40
2023-01-02T06:18:06.050Z,22.50
2023-01-02T06:20:35.681Z,22.50
2023-01-02T06:23:05.377Z,22.60
2023-01-02T06:25:36.332Z,22.60
2023-01-02T06:28:07.218Z,22.70
2023-01-02T06:30:36.902Z,22.70
2023-01-02T06:33:06.579Z,22.70
2023-01-02T06:35:36.312Z,22.70
2023-01-02T06:38:06.307Z,22.80
2023-01-02T06:40:35.912Z,22.80
2023-01-02T06:43:05.570Z,22.90
2023-01-02T06:45:35.271Z,22.90
2023-01-02T06:48:04.956Z,23.00
2023-01-02T06:50:35.231Z,23.00
2023-01-02T06:53:05.076Z,23.00
2023-01-02T06:55:34.727Z,23.10
2023-01-02T06:58:09.375Z,23.10
2023-01-02T07:00:42.159Z,23.10
2023-01-02T07:03:11.831Z,23.20
2023-01-02T07:05:41.598Z,23.20
2023-01-02T07:08:12.455Z,23.30
2023-01-02T07:10:42.114Z,23.30
2023-01-02T07:13:11.766Z,23.30
2023-01-02T07:15:41.477Z,23.30
2023-01-02T07:18:11.086Z,23.40
2023-01-02T07:20:40.715Z,23.40
2023-01-02T07:23:10.460Z,23.40
2023-01-02T07:25:44.392Z,23.40
2023-01-02T07:28:15.158Z,23.50
2023-01-02T07:30:44.712Z,23.50
2023-01-02T07:33:14.308Z,23.50
2023-01-02T07:35:44.299Z,23.50
2023-01-02T07:38:14.469Z,23.50
2023-01-02T07:40:44.037Z,23.60
2023-01-02T07:43:13.731Z,23.50
2023-01-02T07:45:49.594Z,23.50
2023-01-02T07:48:20.548Z,23.50
2023-01-02T07:50:50.100Z,23.50
2023-01-02T07:53:19.684Z,23.50
2023-01-02T07:55:56.577Z,23.50
2023-01-02T07:58:26.498Z,23.50
2023-01-02T08:01:03.249Z,23.50
2023-01-02T08:03:35.808Z,23.50
2023-01-02T08:06:14.195Z,23.50
2023-01-02T08:08:44.531Z,23.60
2023-01-02T08:11:17.564Z,23.50
2023-01-02T08:13:47.978Z,23.50
2023-01-02T08:16:24.512Z,23.50
2023-01-02T08:18:58.187Z,23.50
2023-01-02T08:21:29.008Z,23.50
2023-01-02T08:23:58.682Z,23.50
2023-01-02T08:26:28.302Z,23.50
2023-01-02T08:28:58.671Z,23.50
2023-01-02T08:31:28.350Z,23.50
2023-01-02T08:33:58.066Z,23.50
2023-01-02T08:36:27.654Z,23.40
2023-01-02T08:38:57.691Z,23.40
2023-01-02T08:41:39.093Z,23.40
2023-01-02T08:44:09.706Z,23.40
2023-01-02T08:46:42.903Z,23.40
2023-01-02T08:49:13.937Z,23.40
2023-01-02T08:51:43.553Z,23.40
2023-01-02T08:54:13.124Z,23.40
2023-01-02T08:56:43.180Z,23.40
2023-01-02T08:59:14.789Z,23.40
2023-01-02T09:01:44.994Z,23.40
2023-01-02T09:04:14.661Z,23.30
2023-01-02T09:06:45.408Z,23.30
2023-01-02T09:09:17.672Z,23.30
2023-01-02T09:11:51.980Z,23.30
2023-01-02T09:14:23.587Z,23.20
2023-01-02T09:16:54.071Z,23.20
2023-01-02T09:19:23.698Z,23.20
2023-01-02T09:21:53.479Z,23.20
2023-01-02T09:24:23.167Z,23.20
2023-01-02T09:26:52.913Z,23.20
2023-01-02T09:29:23.484Z,23.20
2023-01-02T09:31:53.079Z,23.10
2023-01-02T09:34:22.724Z,23.10
2023-01-02T09:36:52.381Z,23.10
2023-01-02T09:39:25.607Z,23.10
2023-01-02T09:42:02.407Z,23.00
2023-01-02T09:44:54.484Z,23.00
2023-01-02T09:47:32.659Z,23.00
2023-01-02T09:50:07.045Z,22.90
2023-01-02T09:52:44.586Z,22.90
2023-01-02T09:55:21.309Z,22.90
2023-01-02T09:58:16.168Z,22.90
2023-01-02T10:00:48.045Z,22.90
2023-01-02T10:03:42.454Z,22.90
2023-01-02T10:06:19.540Z,22.80
2023-01-02T10:09:12.639Z,22.80
2023-01-02T10:11:58.891Z,22.80
2023-01-02T10:15:00.205Z,22.80
2023-01-02T10:17:35.486Z,22.70
2023-01-02T10:20:29.355Z,22.70
2023-01-02T10:23:22.969Z,22.70
2023-01-02T10:26:05.609Z,22.60
2023-01-02T10:29:01.780Z,22.70
2023-01-02T10:31:57.828Z,22.60
2023-01-02T10:34:32.056Z,22.60
2023-01-02T10:37:06.212Z,22.60
2023-01-02T10:39:37.669Z,22.60
2023-01-02T10:42:08.504Z,22.60
2023-01-02T10:44:40.626Z,22.60
2023-01-02T10:47:37.565Z,22.50
2023-01-02T10:50:09.995Z,22.50
2023-01-02T10:52:50.817Z,22.50
2023-01-02T10:55:47.149Z,22.50
2023-01-02T10:58:29.051Z,22.50
2023-01-02T11:01:23.200Z,22.50
2023-01-02T11:04:15.313Z,22.40
2023-01-02T11:07:01.107Z,22.40
2023-01-02T11:09:33.592Z,22.40
2023-01-02T11:12:15.393Z,22.30
2023-01-02T11:14:45.040Z,22.30
2023-01-02T11:17:23.694Z,22.30
2023-01-02T11:19:58.598Z,22.30
2023-01-02T11:22:39.267Z,22.30
2023-01-02T11:25:14.432Z,22.20
2023-01-02T11:27:45.782Z,22.20
2023-01-02T11:30:37.829Z,22.30
2023-01-02T11:33:29.891Z,22.20
2023-01-02T11:36:08.431Z,22.20
2023-01-02T11:38:50.490Z,22.20
2023-01-02T11:42:01.662Z,22.20
2023-01-02T11:44:59.264Z,22.10
2023-01-02T11:47:36.396Z,22.10
2023-01-02T11:50:06.515Z,22.10
2023-01-02T11:52:48.307Z,22.10
2023-01-02T11:55:48.712Z,22.10
2023-01-02T11:58:57.458Z,22.00
2023-01-02T12:01:49.990Z,22.00
2023-01-02T12:04:19.669Z,22.00
2023-01-02T12:07:22.212Z,22.00
2023-01-02T12:10:31.005Z,22.00
2023-01-02T12:13:39.874Z,22.00
2023-01-02T12:16:28.719Z,22.00
2023-01-02T12:19:37.539Z,22.00
2023-01-02T12:22:46.227Z,22.00
2023-01-02T12:25:55.027Z,21.90
2023-01-02T12:28:54.568Z,21.90
2023-01-02T12:32:01.236Z,21.90
2023-01-02T12:35:13.897Z,21.90
2023-01-02T12:38:05.448Z,21.90
2023-01-02T12:41:04.215Z,21.90
2023-01-02T12:44:00.646Z,21.90
2023-01-02T12:46:49.668Z,21.90
2023-01-02T12:49:54.948Z,21.80
2023-01-02T12:52:57.628Z,21.80
2023-01-02T12:56:06.418Z,21.80
2023-01-02T12:59:02.501Z,21.80
2023-01-02T13:02:04.288Z,21.80
2023-01-02T13:04:39.170Z,21.80
2023-01-02T13:07:24.476Z,21.80
2023-01-02T13:09:55.710Z,21.70
2023-01-02T13:12:29.154Z,21.70
2023-01-02T13:15:22.926Z,21.70
2023-01-02T13:18:30.876Z,21.70
2023-01-02T13:21:14.005Z,21.70
2023-01-02T13:23:48.636Z,21.70
2023-01-02T13:26:28.174Z,21.70
2023-01-02T13:29:28.992Z,21.70
2023-01-02T13:32:00.834Z,21.70
2023-01-02T13:34:34.165Z,21.60
2023-01-02T13:37:11.467Z,21.60
2023-01-02T13:39:54.897Z,21.60
2023-01-02T13:42:55.262Z,21.60
2023-01-02T13:45:45.053Z,21.60
2023-01-02T13:48:40.412Z,21.60
2023-01-02T13:51:19.668Z,21.60
2023-01-02T13:53:52.318Z,21.60
2023-01-02T13:56:30.540Z,21.60
2023-01-02T13:59:04.013Z,21.50
2023-01-02T14:02:19.502Z,21.60
2023-01-02T14:04:49.345Z,21.50
2023-01-02T14:07:45.465Z,21.50
2023-01-02T14:10:30.120Z,21.50
2023-01-02T14:13:09.536Z,21.50
2023-01-02T14:16:09.610Z,21.50
2023-01-02T14:18:46.062Z,21.50
2023-01-02T14:21:19.429Z,21.50
2023-01-02T14:24:18.221Z,21.50
2023-01-02T14:26:43.796Z,21.40
2023-01-02T14:29:18.556Z,21.40
2023-01-02T14:31:49.532Z,21.40
2023-01-02T14:34:27.405Z,21.40
2023-01-02T14:36:59.919Z,21.40
2023-01-02T14:39:38.378Z,21.40
2023-01-02T14:42:54.408Z,21.30
2023-01-02T14:45:25.648Z,21.30
2023-01-02T14:48:01.557Z,21.40
2023-01-02T14:50:35.405Z,21.30
2023-01-02T14:53:28.076Z,21.30
2023-01-02T14:56:04.773Z,21.30
2023-01-02T14:58:44.956Z,21.30
2023-01-02T15:01:42.509Z,21.30
2023-01-02T15:04:26.904Z,21.30
2023-01-02T15:07:29.356Z,21.30
2023-01-02T15:10:21.140Z,21.30
2023-01-02T15:13:08.939Z,21.30
2023-01-02T15:15:45.924Z,21.30
2023-01-02T15:18:31.094Z,21.20
2023-01-02T15:21:10.340Z,21.20
2023-01-02T15:23:45.198Z,21.20
2023-01-02T15:26:38.777Z,21.20
2023-01-02T15:29:22.353Z,21.20
2023-01-02T15:32:00.775Z,21.20
2023-01-02T15:34:35.435Z,21.20
2023-01-02T15:37:08.633Z,21.10
2023-01-02T15:39:41.754Z,21.20
2023-01-02T15:42:46.646Z,21.20
2023-01-02T15:45:19.079Z,21.10
2023-01-02T15:47:53.365Z,21.10
2023-01-02T15:50:29.795Z,21.10
2023-01-02T15:53:07.114Z,21.10
2023-01-02T15:55:42.348Z,21.10
2023-01-02T15:58:30.977Z,21.10
2023-01-02T16:01:22.262Z,21.10
2023-01-02T16:04:03.153Z,21.10
2023-01-02T16:06:47.064Z,21.10
2023-01-02T16:09:32.919Z,21.10
2023-01-02T16:12:05.191Z,21.10
2023-01-02T16:14:43.231Z,21.10
2023-01-02T16:17:35.760Z,21.10
2023-01-02T16:20:21.303Z,21.10
2023-01-02T16:23:06.099Z,21.00
2023-01-02T16:25:38.184Z,21.00
2023-01-02T16:28:36.155Z,21.00
2023-01-02T16:31:17.219Z,21.00
2023-01-02T16:33:48.055Z,21.00
2023-01-02T16:36:27.288Z,20.90
2023-01-02T16:39:01.177Z,20.90
2023-01-02T16:42:19.709Z,20.90
2023-01-02T16:44:57.531Z,20.90
2023-01-02T16:47:41.428Z,20.90
2023-01-02T16:50:19.421Z,20.90
2023-01-02T16:52:50.202Z,20.90
2023-01-02T16:55:22.354Z,20.90
2023-01-02T16:57:53.377Z,20.80
2023-01-02T17:00:24.571Z,20.80
2023-01-02T17:02:54.609Z,20.80
2023-01-02T17:05:44.623Z,20.80
2023-01-02T17:08:14.319Z,20.80
2023-01-02T17:10:44.142Z,20.80
2023-01-02T17:13:13.996Z,20.80
2023-01-02T17:15:44.019Z,20.80
2023-01-02T17:18:15.005Z,20.70
2023-01-02T17:20:45.114Z,20.80
2023-01-02T17:23:14.925Z,20.70
2023-01-02T17:25:45.463Z,20.70
2023-01-02T17:28:16.011Z,20.70
2023-01-02T17:30:47.155Z,20.70
2023-01-02T17:33:17.290Z,20.70
2023-01-02T17:35:48.562Z,20.70
2023-01-02T17:38:19.165Z,20.70
2023-01-02T17:40:49.000Z,20.70
2023-01-02T17:43:18.688Z,20.60
2023-01-02T17:45:49.090Z,20.60
2023-01-02T17:48:23.850Z,20.60
2023-01-02T17:50:55.623Z,20.60
2023-01-02T17:53:25.481Z,20.60
2023-01-02T17:56:20.833Z,20.60
2023-01-02T17:58:46.578Z,20.60
2023-01-02T18:01:19.834Z,20.60
2023-01-02T18:03:49.836Z,20.60
2023-01-02T18:06:20.471Z,20.50
2023-01-02T18:08:50.796Z,20.60
2023-01-02T18:11:20.571Z,20.60
2023-01-02T18:13:54.917Z,20.50
2023-01-02T18:16:33.856Z,20.60
2023-01-02T18:19:05.794Z,20.50
2023-01-02T18:21:37.014Z,20.60
2023-01-02T18:24:13.955Z,20.50
2023-01-02T18:26:43.809Z,20.50
2023-01-02T18:29:22.729Z,20.50
2023-01-02T18:31:53.277Z,20.60
2023-01-02T18:34:47.798Z,20.50
2023-01-02T18:37:27.908Z,20.50
2023-01-02T18:39:59.017Z,20.50
2023-01-02T18:42:33.862Z,20.50
2023-01-02T18:45:04.439Z,20.50
2023-01-02T18:47:38.872Z,20.50
2023-01-02T18:50:35.425Z,20.50
2023-01-02T18:53:27.767Z,20.50
2023-01-02T18:56:04.550Z,20.50
2023-01-02T18:59:13.313Z,20.50
2023-01-02T19:01:50.253Z,20.50
2023-01-02T19:04:32.732Z,20.40
2023-01-02T19:07:17.715Z,20.40
2023-01-02T19:09:47.347Z,20.40
2023-01-02T19:12:46.648Z,20.40
2023-01-02T19:15:55.403Z,20.40
2023-01-02T19:18:48.663Z,20.40
2023-01-02T19:21:33.383Z,20.30
2023-01-02T19:24:25.812Z,20.30
2023-01-02T19:27:00.082Z,20.20
2023-01-02T19:29:33.908Z,20.30
2023-01-02T19:32:24.649Z,20.30
2023-01-02T19:35:00.417Z,20.20
2023-01-02T19:37:42.147Z,20.20
2023-01-02T19:40:24.343Z,20.20
2023-01-02T19:42:56.112Z,20.20
2023-01-02T19:45:28.070Z,20.20
2023-01-02T19:47:58.439Z,20.20
2023-01-02T19:50:29.153Z,20.20
2023-01-02T19:52:58.679Z,20.20
2023-01-02T19:55:28.299Z,20.20
2023-01-02T19:57:58.097Z,20.20
2023-01-02T20:00:27.741Z,20.20
2023-01-02T20:02:57.531Z,20.20
2023-01-02T20:05:29.306Z,20.20
2023-01-02T20:08:02.336Z,20.20
2023-01-02T20:10:31.970Z,20.20
2023-01-02T20:13:01.541Z,20.20
2023-01-02T20:15:31.301Z,20.20
2023-01-02T20:18:06.623Z,20.20
2023-01-02T20:20:38.339Z,20.20
2023-01-02T20:23:08.010Z,20.20
2023-01-02T20:25:37.657Z,20.20
2023-01-02T20:28:07.356Z,20.20
2023-01-02T20:30:36.948Z,20.20
2023-01-02T20:33:06.639Z,20.20
2023-01-02T20:35:36.305Z,20.20
2023-01-02T20:38:05.851Z,20.20
2023-01-02T20:40:35.389Z,20.20
2023-01-02T20:43:05.109Z,20.20
2023-01-02T20:45:34.776Z,20.10
2023-01-02T20:48:05.217Z,20.10
2023-01-02T20:50:34.899Z,20.20
2023-01-02T20:53:04.726Z,20.10
2023-01-02T20:55:34.836Z,20.20
2023-01-02T20:58:04.994Z,20.10
2023-01-02T21:00:35.398Z,20.10
2023-01-02T21:03:05.838Z,20.10
2023-01-02T21:05:35.807Z,20.10
2023-01-02T21:08:05.945Z,20.20
2023-01-02T21:10:36.597Z,20.10
2023-01-02T21:13:09.323Z,20.10
2023-01-02T21:15:44.160Z,20.10
2023-01-02T21:18:29.304Z,20.10
2023-01-02T21:21:02.585Z,20.10
2023-01-02T21:23:33.709Z,20.10
2023-01-02T21:26:04.059Z,20.10
2023-01-02T21:28:34.805Z,20.10
2023-01-02T21:31:04.538Z,20.10
2023-01-02T21:33:34.299Z,20.10
2023-01-02T21:36:08.344Z,20.10
2023-01-02T21:38:39.315Z,20.00
2023-01-02T21:41:28.685Z,20.00
2023-01-02T21:43:58.456Z,20.00
2023-01-02T21:46:28.043Z,20.00
2023-01-02T21:48:58.419Z,20.00
2023-01-02T21:51:32.737Z,20.10
2023-01-02T21:54:02.876Z,20.00
2023-01-02T21:56:32.543Z,20.00
2023-01-02T21:59:02.610Z,20.10
2023-01-02T22:01:32.374Z,20.00
2023-01-02T22:04:02.189Z,20.00
2023-01-02T22:06:36.745Z,20.10
2023-01-02T22:09:08.372Z,20.10
2023-01-02T22:11:57.747Z,20.00
2023-01-02T22:14:31.076Z,20.00
2023-01-02T22:17:04.404Z,20.10
2023-01-02T22:19:34.623Z,20.00
2023-01-02T22:22:05.017Z,20.10
2023-01-02T22:24:39.160Z,20.10
2023-01-02T22:27:16.144Z,20.10
2023-01-02T22:32:37.014Z,20.10
2023-01-02T22:35:08.528Z,20.10
2023-01-02T22:37:38.131Z,20.10
2023-01-02T22:40:08.092Z,20.10
2023-01-02T22:43:02.704Z,20.10
2023-01-02T22:45:39.120Z,20.10
2023-01-02T22:48:16.366Z,20.00
2023-01-02T22:50:48.279Z,20.10
2023-01-02T22:53:35.795Z,20.00
2023-01-02T22:56:14.613Z,20.10
2023-01-02T22:58:44.410Z,20.00
2023-01-02T23:01:32.900Z,20.00
2023-01-02T23:04:03.163Z,20.00
2023-01-02T23:06:35.548Z,20.00
2023-01-02T23:09:10.702Z,20.00
2023-01-02T23:11:40.584Z,20.00
2023-01-02T23:14:10.235Z,20.00
2023-01-02T23:17:00.171Z,20.00
2023-01-02T23:19:30.017Z,20.00
2023-01-02T23:22:04.306Z,20.00
2023-01-02T23:24:38.835Z,20.00
2023-01-02T23:27:14.207Z,20.00
2023-01-02T23:29:44.004Z,20.00
2023-01-02T23:32:14.303Z,20.00
2023-01-02T23:34:44.086Z,20.00
2023-01-02T23:37:13.868Z,20.00
2023-01-02T23:39:43.536Z,20.00
2023-01-02T23:42:13.282Z,20.00
2023-01-02T23:44:43.697Z,20.00
2023-01-02T23:47:18.700Z,20.00
2023-01-02T23:49:48.931Z,20.00
2023-01-02T23:52:19.357Z,20.00
2023-01-02T23:54:48.991Z,20.00
2023-01-02T23:57:18.755Z,20.00
2023-01-02T23:59:48.365Z,20.00
